sensor_id;sensor_type;location;lat;lon;timestamp;P1;durP1;ratioP1;P2;durP2;ratioP2
7761;SDS011;3925;48.636;9.516;2023-04-07T00:01:49;7.77;;;6.57;;
7761;SDS011;3925;48.636;9.516;2023-04-07T00:04:16;7.63;;;6.90;;
7761;SDS011;3925;48.636;9.516;2023-04-07T00:06:43;7.90;;;6.50;;
7761;SDS011;3925;48.636;9.516;2023-04-07T00:09:11;6.67;;;5.83;;
7761;SDS011;3925;48.636;9.516;2023-04-07T00:11:38;7.17;;;6.17;;
7761;SDS011;3925;48.636;9.516;2023-04-07T00:14:05;7.77;;;6.03;;
7761;SDS011;3925;48.636;9.516;2023-04-07T00:16:32;8.50;;;6.20;;
7761;SDS011;3925;48.636;9.516;2023-04-07T00:18:58;7.93;;;5.60;;
7761;SDS011;3925;48.636;9.516;2023-04-07T00:21:25;7.50;;;6.53;;
7761;SDS011;3925;48.636;9.516;2023-04-07T00:23:52;7.80;;;6.30;;
7761;SDS011;3925;48.636;9.516;2023-04-07T00:26:20;7.27;;;5.97;;
7761;SDS011;3925;48.636;9.516;2023-04-07T00:28:51;7.07;;;5.80;;
7761;SDS011;3925;48.636;9.516;2023-04-07T00:31:18;7.07;;;6.07;;
7761;SDS011;3925;48.636;9.516;2023-04-07T00:33:44;7.03;;;6.33;;
7761;SDS011;3925;48.636;9.516;2023-04-07T00:36:12;10.80;;;6.60;;
7761;SDS011;3925;48.636;9.516;2023-04-07T00:38:39;10.33;;;7.10;;
7761;SDS011;3925;48.636;9.516;2023-04-07T00:41:06;7.20;;;5.80;;
7761;SDS011;3925;48.636;9.516;2023-04-07T00:43:34;8.20;;;6.10;;
7761;SDS011;3925;48.636;9.516;2023-04-07T00:46:01;8.10;;;6.77;;
7761;SDS011;3925;48.636;9.516;2023-04-07T00:48:28;7.00;;;6.30;;
7761;SDS011;3925;48.636;9.516;2023-04-07T00:50:55;7.10;;;6.37;;
7761;SDS011;3925;48.636;9.516;2023-04-07T00:53:22;5.23;;;4.73;;
7761;SDS011;3925;48.636;9.516;2023-04-07T00:55:49;7.73;;;6.00;;
7761;SDS011;3925;48.636;9.516;2023-04-07T00:58:16;7.03;;;6.20;;
7761;SDS011;3925;48.636;9.516;2023-04-07T01:00:54;7.20;;;6.50;;
7761;SDS011;3925;48.636;9.516;2023-04-07T01:03:29;6.60;;;6.00;;
7761;SDS011;3925;48.636;9.516;2023-04-07T01:06:01;6.60;;;5.90;;
7761;SDS011;3925;48.636;9.516;2023-04-07T01:08:32;8.90;;;7.60;;
7761;SDS011;3925;48.636;9.516;2023-04-07T01:11:07;7.60;;;6.80;;
7761;SDS011;3925;48.636;9.516;2023-04-07T01:13:40;9.67;;;7.43;;
7761;SDS011;3925;48.636;9.516;2023-04-07T01:16:14;7.97;;;6.93;;
7761;SDS011;3925;48.636;9.516;2023-04-07T01:18:50;8.27;;;7.07;;
7761;SDS011;3925;48.636;9.516;2023-04-07T01:21:20;8.63;;;7.70;;
7761;SDS011;3925;48.636;9.516;2023-04-07T01:24:04;7.90;;;6.20;;
7761;SDS011;3925;48.636;9.516;2023-04-07T01:26:54;6.90;;;6.30;;
7761;SDS011;3925;48.636;9.516;2023-04-07T01:29:28;9.43;;;6.67;;
7761;SDS011;3925;48.636;9.516;2023-04-07T01:32:01;6.93;;;5.97;;
7761;SDS011;3925;48.636;9.516;2023-04-07T01:34:32;7.17;;;6.47;;
7761;SDS011;3925;48.636;9.516;2023-04-07T01:37:00;8.07;;;6.27;;
7761;SDS011;3925;48.636;9.516;2023-04-07T01:39:28;9.90;;;7.00;;
7761;SDS011;3925;48.636;9.516;2023-04-07T01:41:56;7.93;;;6.40;;
7761;SDS011;3925;48.636;9.516;2023-04-07T01:44:26;7.20;;;6.40;;
7761;SDS011;3925;48.636;9.516;2023-04-07T01:46:55;7.60;;;6.80;;
7761;SDS011;3925;48.636;9.516;2023-04-07T01:49:22;8.77;;;6.80;;
7761;SDS011;3925;48.636;9.516;2023-04-07T01:51:51;10.00;;;7.70;;
7761;SDS011;3925;48.636;9.516;2023-04-07T01:54:18;8.77;;;7.80;;
7761;SDS011;3925;48.636;9.516;2023-04-07T01:56:46;7.53;;;6.67;;
7761;SDS011;3925;48.636;9.516;2023-04-07T01:59:13;8.90;;;7.50;;
7761;SDS011;3925;48.636;9.516;2023-04-07T02:01:41;9.20;;;6.90;;
7761;SDS011;3925;48.636;9.516;2023-04-07T02:04:10;8.00;;;6.63;;
7761;SDS011;3925;48.636;9.516;2023-04-07T02:06:41;8.53;;;7.23;;
7761;SDS011;3925;48.636;9.516;2023-04-07T02:09:14;8.10;;;6.93;;
7761;SDS011;3925;48.636;9.516;2023-04-07T02:11:42;8.23;;;7.27;;
7761;SDS011;3925;48.636;9.516;2023-04-07T02:14:10;8.70;;;7.80;;
7761;SDS011;3925;48.636;9.516;2023-04-07T02:16:38;9.17;;;8.10;;
7761;SDS011;3925;48.636;9.516;2023-04-07T02:19:08;9.40;;;8.50;;
7761;SDS011;3925;48.636;9.516;2023-04-07T02:21:35;8.77;;;7.00;;
7761;SDS011;3925;48.636;9.516;2023-04-07T02:24:04;8.37;;;7.40;;
7761;SDS011;3925;48.636;9.516;2023-04-07T02:26:32;10.83;;;8.50;;
7761;SDS011;3925;48.636;9.516;2023-04-07T02:29:00;8.90;;;7.60;;
7761;SDS011;3925;48.636;9.516;2023-04-07T02:31:27;9.57;;;7.97;;
7761;SDS011;3925;48.636;9.516;2023-04-07T02:33:55;9.80;;;8.30;;
7761;SDS011;3925;48.636;9.516;2023-04-07T02:36:22;9.60;;;8.17;;
7761;SDS011;3925;48.636;9.516;2023-04-07T02:38:50;8.50;;;7.60;;
7761;SDS011;3925;48.636;9.516;2023-04-07T02:41:17;9.00;;;7.50;;
7761;SDS011;3925;48.636;9.516;2023-04-07T02:43:43;9.33;;;8.40;;
7761;SDS011;3925;48.636;9.516;2023-04-07T02:46:10;8.87;;;8.07;;
7761;SDS011;3925;48.636;9.516;2023-04-07T02:48:37;10.00;;;8.20;;
7761;SDS011;3925;48.636;9.516;2023-04-07T02:51:05;9.90;;;7.77;;
7761;SDS011;3925;48.636;9.516;2023-04-07T02:53:32;10.17;;;7.53;;
7761;SDS011;3925;48.636;9.516;2023-04-07T02:55:59;8.83;;;7.70;;
7761;SDS011;3925;48.636;9.516;2023-04-07T02:58:26;10.40;;;9.00;;
7761;SDS011;3925;48.636;9.516;2023-04-07T03:00:53;8.53;;;7.70;;
7761;SDS011;3925;48.636;9.516;2023-04-07T03:03:19;9.37;;;8.33;;
7761;SDS011;3925;48.636;9.516;2023-04-07T03:05:46;7.00;;;6.30;;
7761;SDS011;3925;48.636;9.516;2023-04-07T03:08:14;9.03;;;6.87;;
7761;SDS011;3925;48.636;9.516;2023-04-07T03:10:41;9.63;;;6.83;;
7761;SDS011;3925;48.636;9.516;2023-04-07T03:13:08;10.33;;;8.37;;
7761;SDS011;3925;48.636;9.516;2023-04-07T03:15:36;8.87;;;7.97;;
7761;SDS011;3925;48.636;9.516;2023-04-07T03:18:04;8.67;;;7.47;;
7761;SDS011;3925;48.636;9.516;2023-04-07T03:20:30;7.73;;;6.93;;
7761;SDS011;3925;48.636;9.516;2023-04-07T03:22:57;8.30;;;6.53;;
7761;SDS011;3925;48.636;9.516;2023-04-07T03:25:26;8.10;;;7.30;;
7761;SDS011;3925;48.636;9.516;2023-04-07T03:27:52;7.63;;;6.80;;
7761;SDS011;3925;48.636;9.516;2023-04-07T03:30:19;8.23;;;7.40;;
7761;SDS011;3925;48.636;9.516;2023-04-07T03:32:46;8.00;;;6.70;;
7761;SDS011;3925;48.636;9.516;2023-04-07T03:35:13;7.37;;;6.67;;
7761;SDS011;3925;48.636;9.516;2023-04-07T03:37:40;8.87;;;8.03;;
7761;SDS011;3925;48.636;9.516;2023-04-07T03:40:07;8.73;;;7.37;;
7761;SDS011;3925;48.636;9.516;2023-04-07T03:42:36;9.00;;;7.43;;
7761;SDS011;3925;48.636;9.516;2023-04-07T03:45:03;7.90;;;6.97;;
7761;SDS011;3925;48.636;9.516;2023-04-07T03:47:30;7.17;;;6.47;;
7761;SDS011;3925;48.636;9.516;2023-04-07T03:49:57;8.77;;;7.97;;
7761;SDS011;3925;48.636;9.516;2023-04-07T03:52:23;10.47;;;7.37;;
7761;SDS011;3925;48.636;9.516;2023-04-07T03:54:51;7.80;;;6.27;;
7761;SDS011;3925;48.636;9.516;2023-04-07T03:57:18;8.17;;;7.37;;
7761;SDS011;3925;48.636;9.516;2023-04-07T03:59:46;7.60;;;6.80;;
7761;SDS011;3925;48.636;9.516;2023-04-07T04:02:15;7.27;;;6.57;;
7761;SDS011;3925;48.636;9.516;2023-04-07T04:04:42;7.63;;;6.60;;
7761;SDS011;3925;48.636;9.516;2023-04-07T04:07:08;8.17;;;7.13;;
7761;SDS011;3925;48.636;9.516;2023-04-07T04:09:35;9.10;;;8.13;;
7761;SDS011;3925;48.636;9.516;2023-04-07T04:12:02;6.77;;;5.87;;
7761;SDS011;3925;48.636;9.516;2023-04-07T04:14:29;9.60;;;8.60;;
7761;SDS011;3925;48.636;9.516;2023-04-07T04:16:57;8.33;;;7.23;;
7761;SDS011;3925;48.636;9.516;2023-04-07T04:19:24;8.67;;;7.27;;
7761;SDS011;3925;48.636;9.516;2023-04-07T04:21:51;10.00;;;7.93;;
7761;SDS011;3925;48.636;9.516;2023-04-07T04:24:18;8.20;;;7.37;;
7761;SDS011;3925;48.636;9.516;2023-04-07T04:26:45;10.97;;;7.17;;
7761;SDS011;3925;48.636;9.516;2023-04-07T04:29:11;9.40;;;8.40;;
7761;SDS011;3925;48.636;9.516;2023-04-07T04:31:38;7.83;;;7.03;;
7761;SDS011;3925;48.636;9.516;2023-04-07T04:34:06;8.23;;;7.33;;
7761;SDS011;3925;48.636;9.516;2023-04-07T04:36:33;9.17;;;7.73;;
7761;SDS011;3925;48.636;9.516;2023-04-07T04:39:00;8.07;;;7.27;;
7761;SDS011;3925;48.636;9.516;2023-04-07T04:41:27;9.33;;;7.87;;
7761;SDS011;3925;48.636;9.516;2023-04-07T04:43:54;10.77;;;7.33;;
7761;SDS011;3925;48.636;9.516;2023-04-07T04:46:20;9.67;;;8.70;;
7761;SDS011;3925;48.636;9.516;2023-04-07T04:48:47;9.53;;;8.53;;
7761;SDS011;3925;48.636;9.516;2023-04-07T04:51:16;10.23;;;7.93;;
7761;SDS011;3925;48.636;9.516;2023-04-07T04:53:43;8.27;;;7.50;;
7761;SDS011;3925;48.636;9.516;2023-04-07T04:56:10;9.67;;;8.07;;
7761;SDS011;3925;48.636;9.516;2023-04-07T04:58:38;10.70;;;7.20;;
7761;SDS011;3925;48.636;9.516;2023-04-07T05:01:06;11.10;;;8.50;;
7761;SDS011;3925;48.636;9.516;2023-04-07T05:03:33;10.00;;;7.80;;
7761;SDS011;3925;48.636;9.516;2023-04-07T05:05:59;9.33;;;8.17;;
7761;SDS011;3925;48.636;9.516;2023-04-07T05:08:28;9.90;;;7.83;;
7761;SDS011;3925;48.636;9.516;2023-04-07T05:10:55;11.67;;;8.73;;
7761;SDS011;3925;48.636;9.516;2023-04-07T05:13:22;11.20;;;9.47;;
7761;SDS011;3925;48.636;9.516;2023-04-07T05:15:49;14.87;;;9.60;;
7761;SDS011;3925;48.636;9.516;2023-04-07T05:18:16;12.40;;;9.60;;
7761;SDS011;3925;48.636;9.516;2023-04-07T05:20:43;10.70;;;9.57;;
7761;SDS011;3925;48.636;9.516;2023-04-07T05:23:10;11.07;;;9.27;;
7761;SDS011;3925;48.636;9.516;2023-04-07T05:25:38;13.23;;;11.00;;
7761;SDS011;3925;48.636;9.516;2023-04-07T05:28:05;17.17;;;11.43;;
7761;SDS011;3925;48.636;9.516;2023-04-07T05:30:32;12.77;;;9.60;;
7761;SDS011;3925;48.636;9.516;2023-04-07T05:32:59;11.77;;;10.03;;
7761;SDS011;3925;48.636;9.516;2023-04-07T05:35:26;14.50;;;11.80;;
7761;SDS011;3925;48.636;9.516;2023-04-07T05:37:52;10.40;;;9.27;;
7761;SDS011;3925;48.636;9.516;2023-04-07T05:40:19;12.83;;;9.90;;
7761;SDS011;3925;48.636;9.516;2023-04-07T05:42:48;14.53;;;9.93;;
7761;SDS011;3925;48.636;9.516;2023-04-07T05:45:15;10.37;;;9.27;;
7761;SDS011;3925;48.636;9.516;2023-04-07T05:47:42;12.07;;;8.73;;
7761;SDS011;3925;48.636;9.516;2023-04-07T05:50:09;12.40;;;10.30;;
7761;SDS011;3925;48.636;9.516;2023-04-07T05:52:36;11.63;;;9.33;;
7761;SDS011;3925;48.636;9.516;2023-04-07T05:55:03;11.70;;;9.53;;
7761;SDS011;3925;48.636;9.516;2023-04-07T05:57:31;13.37;;;10.80;;
7761;SDS011;3925;48.636;9.516;2023-04-07T06:00:00;10.20;;;9.20;;
7761;SDS011;3925;48.636;9.516;2023-04-07T06:02:27;11.43;;;10.03;;
7761;SDS011;3925;48.636;9.516;2023-04-07T06:04:54;15.47;;;9.37;;
7761;SDS011;3925;48.636;9.516;2023-04-07T06:07:21;12.50;;;11.20;;
7761;SDS011;3925;48.636;9.516;2023-04-07T06:09:48;14.47;;;9.60;;
7761;SDS011;3925;48.636;9.516;2023-04-07T06:12:14;13.87;;;11.37;;
7761;SDS011;3925;48.636;9.516;2023-04-07T06:14:41;10.77;;;9.67;;
7761;SDS011;3925;48.636;9.516;2023-04-07T06:17:13;10.03;;;9.07;;
7761;SDS011;3925;48.636;9.516;2023-04-07T06:19:40;11.63;;;10.20;;
7761;SDS011;3925;48.636;9.516;2023-04-07T06:22:07;9.27;;;8.10;;
7761;SDS011;3925;48.636;9.516;2023-04-07T06:24:33;11.40;;;8.50;;
7761;SDS011;3925;48.636;9.516;2023-04-07T06:27:00;8.03;;;7.23;;
7761;SDS011;3925;48.636;9.516;2023-04-07T06:29:28;11.77;;;9.37;;
7761;SDS011;3925;48.636;9.516;2023-04-07T06:31:54;13.33;;;9.53;;
7761;SDS011;3925;48.636;9.516;2023-04-07T06:34:23;10.13;;;9.13;;
7761;SDS011;3925;48.636;9.516;2023-04-07T06:36:50;8.37;;;7.47;;
7761;SDS011;3925;48.636;9.516;2023-04-07T06:39:16;11.40;;;9.87;;
7761;SDS011;3925;48.636;9.516;2023-04-07T06:41:44;10.97;;;9.80;;
7761;SDS011;3925;48.636;9.516;2023-04-07T06:44:11;11.50;;;10.30;;
7761;SDS011;3925;48.636;9.516;2023-04-07T06:46:38;11.70;;;9.80;;
7761;SDS011;3925;48.636;9.516;2023-04-07T06:49:05;12.20;;;9.83;;
7761;SDS011;3925;48.636;9.516;2023-04-07T06:51:34;11.00;;;9.90;;
7761;SDS011;3925;48.636;9.516;2023-04-07T06:54:00;11.50;;;10.30;;
7761;SDS011;3925;48.636;9.516;2023-04-07T06:56:29;10.90;;;8.70;;
7761;SDS011;3925;48.636;9.516;2023-04-07T06:58:56;11.30;;;9.70;;
7761;SDS011;3925;48.636;9.516;2023-04-07T07:01:23;11.93;;;9.60;;
7761;SDS011;3925;48.636;9.516;2023-04-07T07:03:50;9.70;;;8.70;;
7761;SDS011;3925;48.636;9.516;2023-04-07T07:06:16;8.80;;;7.77;;
7761;SDS011;3925;48.636;9.516;2023-04-07T07:08:45;10.10;;;7.80;;
7761;SDS011;3925;48.636;9.516;2023-04-07T07:11:11;8.20;;;7.30;;
7761;SDS011;3925;48.636;9.516;2023-04-07T07:13:38;8.43;;;7.60;;
7761;SDS011;3925;48.636;9.516;2023-04-07T07:16:05;8.60;;;7.80;;
7761;SDS011;3925;48.636;9.516;2023-04-07T07:18:32;9.40;;;8.40;;
7761;SDS011;3925;48.636;9.516;2023-04-07T07:21:00;8.03;;;7.20;;
7761;SDS011;3925;48.636;9.516;2023-04-07T07:23:27;8.50;;;7.60;;
7761;SDS011;3925;48.636;9.516;2023-04-07T07:25:55;8.33;;;7.60;;
7761;SDS011;3925;48.636;9.516;2023-04-07T07:28:22;7.53;;;6.83;;
7761;SDS011;3925;48.636;9.516;2023-04-07T07:30:49;6.53;;;5.93;;
7761;SDS011;3925;48.636;9.516;2023-04-07T07:33:16;7.10;;;6.50;;
7761;SDS011;3925;48.636;9.516;2023-04-07T07:35:43;6.60;;;6.00;;
7761;SDS011;3925;48.636;9.516;2023-04-07T07:38:10;6.30;;;5.80;;
7761;SDS011;3925;48.636;9.516;2023-04-07T07:40:37;6.13;;;5.63;;
7761;SDS011;3925;48.636;9.516;2023-04-07T07:43:05;7.00;;;6.40;;
7761;SDS011;3925;48.636;9.516;2023-04-07T07:45:32;5.93;;;4.87;;
7761;SDS011;3925;48.636;9.516;2023-04-07T07:47:59;6.40;;;5.60;;
7761;SDS011;3925;48.636;9.516;2023-04-07T07:50:26;6.23;;;5.73;;
7761;SDS011;3925;48.636;9.516;2023-04-07T07:52:53;6.00;;;5.50;;
7761;SDS011;3925;48.636;9.516;2023-04-07T07:55:20;5.73;;;5.23;;
7761;SDS011;3925;48.636;9.516;2023-04-07T07:57:47;6.20;;;5.63;;
7761;SDS011;3925;48.636;9.516;2023-04-07T08:00:16;5.97;;;5.47;;
7761;SDS011;3925;48.636;9.516;2023-04-07T08:02:43;6.73;;;6.07;;
7761;SDS011;3925;48.636;9.516;2023-04-07T08:05:10;7.47;;;5.20;;
7761;SDS011;3925;48.636;9.516;2023-04-07T08:07:37;5.90;;;5.40;;
7761;SDS011;3925;48.636;9.516;2023-04-07T08:10:04;6.00;;;5.50;;
7761;SDS011;3925;48.636;9.516;2023-04-07T08:12:31;6.07;;;5.47;;
7761;SDS011;3925;48.636;9.516;2023-04-07T08:14:58;6.13;;;5.60;;
7761;SDS011;3925;48.636;9.516;2023-04-07T08:17:28;6.73;;;6.03;;
7761;SDS011;3925;48.636;9.516;2023-04-07T08:19:54;6.80;;;5.30;;
7761;SDS011;3925;48.636;9.516;2023-04-07T08:22:21;5.50;;;5.10;;
7761;SDS011;3925;48.636;9.516;2023-04-07T08:24:48;5.60;;;5.20;;
7761;SDS011;3925;48.636;9.516;2023-04-07T08:27:15;4.97;;;4.57;;
7761;SDS011;3925;48.636;9.516;2023-04-07T08:29:42;5.63;;;5.13;;
7761;SDS011;3925;48.636;9.516;2023-04-07T08:32:09;4.80;;;4.40;;
7761;SDS011;3925;48.636;9.516;2023-04-07T08:34:37;4.90;;;4.60;;
7761;SDS011;3925;48.636;9.516;2023-04-07T08:37:04;4.83;;;4.37;;
7761;SDS011;3925;48.636;9.516;2023-04-07T08:39:33;4.03;;;3.73;;
7761;SDS011;3925;48.636;9.516;2023-04-07T08:42:00;4.47;;;3.90;;
7761;SDS011;3925;48.636;9.516;2023-04-07T08:44:27;4.80;;;4.33;;
7761;SDS011;3925;48.636;9.516;2023-04-07T08:46:56;4.27;;;3.87;;
7761;SDS011;3925;48.636;9.516;2023-04-07T08:49:24;3.80;;;3.50;;
7761;SDS011;3925;48.636;9.516;2023-04-07T08:51:55;3.80;;;3.60;;
7761;SDS011;3925;48.636;9.516;2023-04-07T08:54:23;3.77;;;3.43;;
7761;SDS011;3925;48.636;9.516;2023-04-07T08:56:50;4.20;;;3.60;;
7761;SDS011;3925;48.636;9.516;2023-04-07T08:59:17;4.13;;;3.80;;
7761;SDS011;3925;48.636;9.516;2023-04-07T09:01:49;4.43;;;4.10;;
7761;SDS011;3925;48.636;9.516;2023-04-07T09:04:17;4.10;;;3.80;;
7761;SDS011;3925;48.636;9.516;2023-04-07T09:06:44;4.33;;;3.93;;
7761;SDS011;3925;48.636;9.516;2023-04-07T09:09:12;5.30;;;4.90;;
7761;SDS011;3925;48.636;9.516;2023-04-07T09:11:39;4.20;;;3.80;;
7761;SDS011;3925;48.636;9.516;2023-04-07T09:14:06;4.33;;;3.97;;
7761;SDS011;3925;48.636;9.516;2023-04-07T09:16:33;5.20;;;4.70;;
7761;SDS011;3925;48.636;9.516;2023-04-07T09:19:00;5.47;;;4.97;;
7761;SDS011;3925;48.636;9.516;2023-04-07T09:21:29;5.33;;;4.90;;
7761;SDS011;3925;48.636;9.516;2023-04-07T09:24:20;6.10;;;5.50;;
7761;SDS011;3925;48.636;9.516;2023-04-07T09:26:48;5.57;;;5.17;;
7761;SDS011;3925;48.636;9.516;2023-04-07T09:29:17;4.80;;;4.40;;
7761;SDS011;3925;48.636;9.516;2023-04-07T09:31:46;4.50;;;4.10;;
7761;SDS011;3925;48.636;9.516;2023-04-07T09:34:24;4.43;;;4.03;;
7761;SDS011;3925;48.636;9.516;2023-04-07T09:36:52;5.60;;;5.10;;
7761;SDS011;3925;48.636;9.516;2023-04-07T09:39:20;5.10;;;4.60;;
7761;SDS011;3925;48.636;9.516;2023-04-07T09:41:47;4.70;;;4.37;;
7761;SDS011;3925;48.636;9.516;2023-04-07T09:44:15;5.47;;;4.20;;
7761;SDS011;3925;48.636;9.516;2023-04-07T09:46:49;4.40;;;4.00;;
7761;SDS011;3925;48.636;9.516;2023-04-07T09:49:16;4.50;;;4.10;;
7761;SDS011;3925;48.636;9.516;2023-04-07T09:51:53;6.80;;;4.17;;
7761;SDS011;3925;48.636;9.516;2023-04-07T09:54:33;3.60;;;3.30;;
7761;SDS011;3925;48.636;9.516;2023-04-07T09:57:01;4.70;;;4.30;;
7761;SDS011;3925;48.636;9.516;2023-04-07T09:59:29;4.23;;;3.93;;
7761;SDS011;3925;48.636;9.516;2023-04-07T10:01:57;6.13;;;5.33;;
7761;SDS011;3925;48.636;9.516;2023-04-07T10:04:25;6.00;;;5.50;;
7761;SDS011;3925;48.636;9.516;2023-04-07T10:06:53;4.70;;;4.30;;
7761;SDS011;3925;48.636;9.516;2023-04-07T10:09:20;6.53;;;5.53;;
7761;SDS011;3925;48.636;9.516;2023-04-07T10:11:51;5.57;;;5.07;;
7761;SDS011;3925;48.636;9.516;2023-04-07T10:14:19;4.70;;;4.30;;
7761;SDS011;3925;48.636;9.516;2023-04-07T10:16:47;4.40;;;3.83;;
7761;SDS011;3925;48.636;9.516;2023-04-07T10:19:15;4.40;;;4.10;;
7761;SDS011;3925;48.636;9.516;2023-04-07T10:21:44;4.37;;;3.77;;
7761;SDS011;3925;48.636;9.516;2023-04-07T10:24:15;4.17;;;3.77;;
7761;SDS011;3925;48.636;9.516;2023-04-07T10:26:53;5.70;;;4.47;;
7761;SDS011;3925;48.636;9.516;2023-04-07T10:29:22;4.13;;;3.23;;
7761;SDS011;3925;48.636;9.516;2023-04-07T10:31:51;4.10;;;3.70;;
7761;SDS011;3925;48.636;9.516;2023-04-07T10:37:19;5.40;;;4.83;;
7761;SDS011;3925;48.636;9.516;2023-04-07T10:39:46;5.50;;;4.67;;
7761;SDS011;3925;48.636;9.516;2023-04-07T10:45:12;5.10;;;4.20;;
7761;SDS011;3925;48.636;9.516;2023-04-07T10:50:37;5.07;;;4.67;;
7761;SDS011;3925;48.636;9.516;2023-04-07T10:53:04;6.13;;;4.10;;
7761;SDS011;3925;48.636;9.516;2023-04-07T10:55:36;5.30;;;4.83;;
7761;SDS011;3925;48.636;9.516;2023-04-07T10:58:21;5.73;;;5.23;;
7761;SDS011;3925;48.636;9.516;2023-04-07T11:03:56;5.83;;;5.17;;
7761;SDS011;3925;48.636;9.516;2023-04-07T11:06:26;5.70;;;5.20;;
7761;SDS011;3925;48.636;9.516;2023-04-07T11:08:53;5.60;;;4.77;;
7761;SDS011;3925;48.636;9.516;2023-04-07T11:11:34;6.10;;;5.60;;
7761;SDS011;3925;48.636;9.516;2023-04-07T11:14:25;6.70;;;5.50;;
7761;SDS011;3925;48.636;9.516;2023-04-07T11:16:52;6.13;;;5.57;;
7761;SDS011;3925;48.636;9.516;2023-04-07T11:19:19;6.37;;;5.30;;
7761;SDS011;3925;48.636;9.516;2023-04-07T11:21:46;6.70;;;5.93;;
7761;SDS011;3925;48.636;9.516;2023-04-07T11:26:58;6.10;;;5.50;;
7761;SDS011;3925;48.636;9.516;2023-04-07T11:29:28;4.83;;;4.37;;
7761;SDS011;3925;48.636;9.516;2023-04-07T11:31:55;5.90;;;5.27;;
7761;SDS011;3925;48.636;9.516;2023-04-07T11:34:28;6.47;;;5.87;;
7761;SDS011;3925;48.636;9.516;2023-04-07T11:36:55;5.57;;;5.00;;
7761;SDS011;3925;48.636;9.516;2023-04-07T11:39:24;4.67;;;4.20;;
7761;SDS011;3925;48.636;9.516;2023-04-07T11:41:55;5.20;;;4.80;;
7761;SDS011;3925;48.636;9.516;2023-04-07T11:44:22;6.97;;;5.20;;
7761;SDS011;3925;48.636;9.516;2023-04-07T11:46:56;6.20;;;4.83;;
7761;SDS011;3925;48.636;9.516;2023-04-07T11:49:24;5.93;;;4.27;;
7761;SDS011;3925;48.636;9.516;2023-04-07T11:51:59;5.70;;;3.97;;
7761;SDS011;3925;48.636;9.516;2023-04-07T11:54:27;4.30;;;4.00;;
7761;SDS011;3925;48.636;9.516;2023-04-07T11:57:03;4.60;;;4.13;;
7761;SDS011;3925;48.636;9.516;2023-04-07T11:59:30;5.03;;;4.40;;
7761;SDS011;3925;48.636;9.516;2023-04-07T12:01:58;6.27;;;5.17;;
7761;SDS011;3925;48.636;9.516;2023-04-07T12:04:25;4.30;;;3.93;;
7761;SDS011;3925;48.636;9.516;2023-04-07T12:06:52;5.80;;;4.23;;
7761;SDS011;3925;48.636;9.516;2023-04-07T12:09:26;4.60;;;4.03;;
7761;SDS011;3925;48.636;9.516;2023-04-07T12:11:55;4.33;;;4.03;;
7761;SDS011;3925;48.636;9.516;2023-04-07T12:14:22;5.00;;;4.50;;
7761;SDS011;3925;48.636;9.516;2023-04-07T12:16:49;6.37;;;4.10;;
7761;SDS011;3925;48.636;9.516;2023-04-07T12:19:18;5.93;;;3.70;;
7761;SDS011;3925;48.636;9.516;2023-04-07T12:21:45;3.83;;;3.43;;
7761;SDS011;3925;48.636;9.516;2023-04-07T12:24:12;4.50;;;3.77;;
7761;SDS011;3925;48.636;9.516;2023-04-07T12:26:38;8.83;;;4.60;;
7761;SDS011;3925;48.636;9.516;2023-04-07T12:29:05;6.97;;;4.87;;
7761;SDS011;3925;48.636;9.516;2023-04-07T12:31:33;4.20;;;3.80;;
7761;SDS011;3925;48.636;9.516;2023-04-07T12:34:00;4.57;;;4.27;;
7761;SDS011;3925;48.636;9.516;2023-04-07T12:36:29;4.00;;;3.53;;
7761;SDS011;3925;48.636;9.516;2023-04-07T12:38:55;6.47;;;3.20;;
7761;SDS011;3925;48.636;9.516;2023-04-07T12:41:23;2.97;;;2.63;;
7761;SDS011;3925;48.636;9.516;2023-04-07T12:43:50;6.13;;;4.20;;
7761;SDS011;3925;48.636;9.516;2023-04-07T12:46:17;3.50;;;3.20;;
7761;SDS011;3925;48.636;9.516;2023-04-07T12:48:45;3.23;;;2.80;;
7761;SDS011;3925;48.636;9.516;2023-04-07T12:51:13;5.90;;;2.93;;
7761;SDS011;3925;48.636;9.516;2023-04-07T12:53:42;4.07;;;3.13;;
7761;SDS011;3925;48.636;9.516;2023-04-07T12:56:08;3.27;;;2.97;;
7761;SDS011;3925;48.636;9.516;2023-04-07T12:58:37;3.93;;;3.10;;
7761;SDS011;3925;48.636;9.516;2023-04-07T13:01:04;6.43;;;3.00;;
7761;SDS011;3925;48.636;9.516;2023-04-07T13:03:31;4.30;;;3.00;;
7761;SDS011;3925;48.636;9.516;2023-04-07T13:05:58;4.40;;;3.13;;
7761;SDS011;3925;48.636;9.516;2023-04-07T13:08:26;3.60;;;3.23;;
7761;SDS011;3925;48.636;9.516;2023-04-07T13:10:55;4.23;;;3.83;;
7761;SDS011;3925;48.636;9.516;2023-04-07T13:13:22;4.53;;;3.50;;
7761;SDS011;3925;48.636;9.516;2023-04-07T13:15:51;3.83;;;2.47;;
7761;SDS011;3925;48.636;9.516;2023-04-07T13:18:18;4.37;;;3.10;;
7761;SDS011;3925;48.636;9.516;2023-04-07T13:20:45;3.07;;;2.77;;
7761;SDS011;3925;48.636;9.516;2023-04-07T13:23:12;5.57;;;2.83;;
7761;SDS011;3925;48.636;9.516;2023-04-07T13:25:39;2.53;;;2.30;;
7761;SDS011;3925;48.636;9.516;2023-04-07T13:28:08;1.77;;;1.67;;
7761;SDS011;3925;48.636;9.516;2023-04-07T13:30:35;4.80;;;2.70;;
7761;SDS011;3925;48.636;9.516;2023-04-07T13:33:02;2.97;;;2.70;;
7761;SDS011;3925;48.636;9.516;2023-04-07T13:35:29;4.70;;;4.00;;
7761;SDS011;3925;48.636;9.516;2023-04-07T13:37:59;6.13;;;3.63;;
7761;SDS011;3925;48.636;9.516;2023-04-07T13:40:26;8.07;;;5.67;;
7761;SDS011;3925;48.636;9.516;2023-04-07T13:42:53;4.00;;;3.63;;
7761;SDS011;3925;48.636;9.516;2023-04-07T13:45:22;7.10;;;4.20;;
7761;SDS011;3925;48.636;9.516;2023-04-07T13:47:49;4.67;;;4.10;;
7761;SDS011;3925;48.636;9.516;2023-04-07T13:50:16;3.93;;;3.63;;
7761;SDS011;3925;48.636;9.516;2023-04-07T13:52:43;6.37;;;4.70;;
7761;SDS011;3925;48.636;9.516;2023-04-07T13:55:09;4.43;;;4.00;;
7761;SDS011;3925;48.636;9.516;2023-04-07T13:57:36;5.23;;;4.30;;
7761;SDS011;3925;48.636;9.516;2023-04-07T14:00:03;4.27;;;3.87;;
7761;SDS011;3925;48.636;9.516;2023-04-07T14:02:33;5.93;;;3.47;;
7761;SDS011;3925;48.636;9.516;2023-04-07T14:04:59;5.47;;;3.43;;
7761;SDS011;3925;48.636;9.516;2023-04-07T14:07:26;4.27;;;3.87;;
7761;SDS011;3925;48.636;9.516;2023-04-07T14:09:53;9.80;;;4.67;;
7761;SDS011;3925;48.636;9.516;2023-04-07T14:12:20;6.10;;;3.30;;
7761;SDS011;3925;48.636;9.516;2023-04-07T14:14:47;4.07;;;3.77;;
7761;SDS011;3925;48.636;9.516;2023-04-07T14:17:16;4.73;;;3.80;;
7761;SDS011;3925;48.636;9.516;2023-04-07T14:19:44;5.33;;;3.67;;
7761;SDS011;3925;48.636;9.516;2023-04-07T14:22:12;4.67;;;3.57;;
7761;SDS011;3925;48.636;9.516;2023-04-07T14:24:40;6.73;;;4.10;;
7761;SDS011;3925;48.636;9.516;2023-04-07T14:27:07;5.10;;;3.73;;
7761;SDS011;3925;48.636;9.516;2023-04-07T14:29:34;4.17;;;3.77;;
7761;SDS011;3925;48.636;9.516;2023-04-07T14:32:02;4.43;;;4.00;;
7761;SDS011;3925;48.636;9.516;2023-04-07T14:34:29;4.83;;;4.30;;
7761;SDS011;3925;48.636;9.516;2023-04-07T14:36:57;5.50;;;4.73;;
7761;SDS011;3925;48.636;9.516;2023-04-07T14:39:24;5.47;;;4.20;;
7761;SDS011;3925;48.636;9.516;2023-04-07T14:41:51;3.43;;;3.10;;
7761;SDS011;3925;48.636;9.516;2023-04-07T14:44:18;4.77;;;4.37;;
7761;SDS011;3925;48.636;9.516;2023-04-07T14:46:45;5.53;;;3.77;;
7761;SDS011;3925;48.636;9.516;2023-04-07T14:49:12;4.40;;;3.80;;
7761;SDS011;3925;48.636;9.516;2023-04-07T14:51:40;3.40;;;3.20;;
7761;SDS011;3925;48.636;9.516;2023-04-07T14:54:08;3.93;;;3.63;;
7761;SDS011;3925;48.636;9.516;2023-04-07T14:56:35;5.63;;;3.90;;
7761;SDS011;3925;48.636;9.516;2023-04-07T14:59:02;4.00;;;3.70;;
7761;SDS011;3925;48.636;9.516;2023-04-07T15:01:28;4.63;;;4.20;;
7761;SDS011;3925;48.636;9.516;2023-04-07T15:03:55;3.97;;;3.57;;
7761;SDS011;3925;48.636;9.516;2023-04-07T15:06:24;4.10;;;3.40;;
7761;SDS011;3925;48.636;9.516;2023-04-07T15:08:51;5.00;;;3.43;;
7761;SDS011;3925;48.636;9.516;2023-04-07T15:11:20;5.47;;;3.37;;
7761;SDS011;3925;48.636;9.516;2023-04-07T15:13:47;4.03;;;3.37;;
7761;SDS011;3925;48.636;9.516;2023-04-07T15:16:14;7.00;;;4.00;;
7761;SDS011;3925;48.636;9.516;2023-04-07T15:18:42;6.07;;;3.50;;
7761;SDS011;3925;48.636;9.516;2023-04-07T15:21:11;4.33;;;3.07;;
7761;SDS011;3925;48.636;9.516;2023-04-07T15:23:38;3.60;;;3.30;;
7761;SDS011;3925;48.636;9.516;2023-04-07T15:26:05;4.27;;;3.37;;
7761;SDS011;3925;48.636;9.516;2023-04-07T15:28:34;5.60;;;4.20;;
7761;SDS011;3925;48.636;9.516;2023-04-07T15:31:01;3.83;;;2.53;;
7761;SDS011;3925;48.636;9.516;2023-04-07T15:33:32;3.43;;;3.10;;